sensor_id;sensor_type;location;lat;lon;timestamp;pressure;altitude;pressure_sealevel;temperature;humidity
41467;BME280;27205;53.690;19.948;2023-02-28T00:01:26;101466.55;;;-2.49;65.85
41467;BME280;27205;53.690;19.948;2023-02-28T00:06:31;101463.29;;;-2.53;65.82
41467;BME280;27205;53.690;19.948;2023-02-28T00:11:34;101467.07;;;-2.58;65.91
41467;BME280;27205;53.690;19.948;2023-02-28T00:16:38;101462.23;;;-2.66;66.06
41467;BME280;27205;53.690;19.948;2023-02-28T00:21:41;101459.73;;;-2.70;65.83
41467;BME280;27205;53.690;19.948;2023-02-28T00:26:45;101459.72;;;-2.74;65.76
41467;BME280;27205;53.690;19.948;2023-02-28T00:31:49;101457.85;;;-2.74;66.16
41467;BME280;27205;53.690;19.948;2023-02-28T00:36:53;101458.06;;;-2.78;66.43
41467;BME280;27205;53.690;19.948;2023-02-28T00:41:56;101459.42;;;-2.81;66.14
41467;BME280;27205;53.690;19.948;2023-02-28T00:47:00;101462.59;;;-2.82;66.20
41467;BME280;27205;53.690;19.948;2023-02-28T00:52:04;101458.97;;;-2.84;66.42
41467;BME280;27205;53.690;19.948;2023-02-28T00:57:08;101453.46;;;-2.89;66.29
41467;BME280;27205;53.690;19.948;2023-02-28T01:02:12;101457.73;;;-2.90;65.98
41467;BME280;27205;53.690;19.948;2023-02-28T01:07:15;101458.63;;;-2.93;66.21
41467;BME280;27205;53.690;19.948;2023-02-28T01:12:19;101455.67;;;-3.00;66.18
41467;BME280;27205;53.690;19.948;2023-02-28T01:17:23;101461.27;;;-3.06;66.27
41467;BME280;27205;53.690;19.948;2023-02-28T01:22:26;101460.48;;;-3.10;66.48
41467;BME280;27205;53.690;19.948;2023-02-28T01:27:30;101453.85;;;-3.10;66.66
41467;BME280;27205;53.690;19.948;2023-02-28T01:32:35;101455.52;;;-3.13;66.62
41467;BME280;27205;53.690;19.948;2023-02-28T01:37:39;101458.33;;;-3.18;66.45
41467;BME280;27205;53.690;19.948;2023-02-28T01:42:42;101461.77;;;-3.23;66.69
41467;BME280;27205;53.690;19.948;2023-02-28T01:47:48;101459.98;;;-3.31;66.99
41467;BME280;27205;53.690;19.948;2023-02-28T01:52:57;101463.70;;;-3.36;67.39
41467;BME280;27205;53.690;19.948;2023-02-28T01:58:05;101461.49;;;-3.38;67.54
41467;BME280;27205;53.690;19.948;2023-02-28T02:03:14;101458.78;;;-3.38;67.63
41467;BME280;27205;53.690;19.948;2023-02-28T02:08:28;101458.83;;;-3.42;67.73
41467;BME280;27205;53.690;19.948;2023-02-28T02:25:25;101454.59;;;-3.45;67.56
41467;BME280;27205;53.690;19.948;2023-02-28T02:40:46;101468.23;;;-3.44;67.31
41467;BME280;27205;53.690;19.948;2023-02-28T02:45:56;101467.63;;;-3.52;67.98
41467;BME280;27205;53.690;19.948;2023-02-28T02:51:07;101470.91;;;-3.52;68.22
41467;BME280;27205;53.690;19.948;2023-02-28T02:56:18;101468.33;;;-3.56;68.01
41467;BME280;27205;53.690;19.948;2023-02-28T03:01:24;101465.48;;;-3.61;68.70
41467;BME280;27205;53.690;19.948;2023-02-28T03:06:32;101464.05;;;-3.65;68.81
41467;BME280;27205;53.690;19.948;2023-02-28T03:11:37;101464.60;;;-3.67;68.76
41467;BME280;27205;53.690;19.948;2023-02-28T03:33:11;101483.69;;;-3.79;68.64
41467;BME280;27205;53.690;19.948;2023-02-28T03:43:28;101485.63;;;-3.83;68.46
41467;BME280;27205;53.690;19.948;2023-02-28T03:53:53;101483.46;;;-3.88;68.54
41467;BME280;27205;53.690;19.948;2023-02-28T03:59:33;101476.98;;;-3.93;68.77
41467;BME280;27205;53.690;19.948;2023-02-28T04:04:38;101478.32;;;-3.97;68.92
41467;BME280;27205;53.690;19.948;2023-02-28T04:09:42;101483.48;;;-4.02;68.35
41467;BME280;27205;53.690;19.948;2023-02-28T04:14:46;101477.09;;;-4.04;68.21
41467;BME280;27205;53.690;19.948;2023-02-28T04:19:49;101482.46;;;-4.11;68.45
41467;BME280;27205;53.690;19.948;2023-02-28T04:24:53;101476.07;;;-4.17;68.28
41467;BME280;27205;53.690;19.948;2023-02-28T04:29:57;101478.39;;;-4.23;68.71
41467;BME280;27205;53.690;19.948;2023-02-28T04:35:01;101470.46;;;-4.26;68.57
41467;BME280;27205;53.690;19.948;2023-02-28T04:40:06;101473.77;;;-4.25;68.40
41467;BME280;27205;53.690;19.948;2023-02-28T04:45:10;101473.73;;;-4.34;68.56
41467;BME280;27205;53.690;19.948;2023-02-28T04:50:14;101469.27;;;-4.38;68.63
41467;BME280;27205;53.690;19.948;2023-02-28T04:55:18;101466.20;;;-4.36;68.69
41467;BME280;27205;53.690;19.948;2023-02-28T05:00:21;101460.16;;;-4.39;68.83
41467;BME280;27205;53.690;19.948;2023-02-28T05:05:25;101458.57;;;-4.35;68.61
41467;BME280;27205;53.690;19.948;2023-02-28T05:10:28;101466.21;;;-4.34;68.54
41467;BME280;27205;53.690;19.948;2023-02-28T05:15:33;101465.84;;;-4.28;68.21
41467;BME280;27205;53.690;19.948;2023-02-28T05:20:37;101463.38;;;-4.26;68.95
41467;BME280;27205;53.690;19.948;2023-02-28T05:25:41;101466.15;;;-4.21;68.76
41467;BME280;27205;53.690;19.948;2023-02-28T05:30:45;101471.13;;;-4.14;68.88
41467;BME280;27205;53.690;19.948;2023-02-28T05:35:48;101479.59;;;-4.05;69.19
41467;BME280;27205;53.690;19.948;2023-02-28T05:40:52;101477.98;;;-4.00;69.19
41467;BME280;27205;53.690;19.948;2023-02-28T05:45:56;101481.28;;;-3.96;69.60
41467;BME280;27205;53.690;19.948;2023-02-28T05:51:00;101485.90;;;-3.91;69.59
41467;BME280;27205;53.690;19.948;2023-02-28T05:56:04;101488.66;;;-3.80;69.68
41467;BME280;27205;53.690;19.948;2023-02-28T06:06:36;101511.89;;;-3.53;69.77
41467;BME280;27205;53.690;19.948;2023-02-28T06:11:40;101516.67;;;-3.48;69.65
41467;BME280;27205;53.690;19.948;2023-02-28T06:16:44;101520.02;;;-3.39;69.69
41467;BME280;27205;53.690;19.948;2023-02-28T06:21:49;101530.14;;;-3.25;69.59
41467;BME280;27205;53.690;19.948;2023-02-28T06:26:55;101537.86;;;-3.14;69.86
41467;BME280;27205;53.690;19.948;2023-02-28T06:32:01;101543.35;;;-3.01;69.75
41467;BME280;27205;53.690;19.948;2023-02-28T06:37:04;101543.15;;;-2.90;69.86
41467;BME280;27205;53.690;19.948;2023-02-28T06:42:08;101533.24;;;-2.78;69.92
41467;BME280;27205;53.690;19.948;2023-02-28T06:47:12;101531.59;;;-2.60;69.75
41467;BME280;27205;53.690;19.948;2023-02-28T06:52:16;101528.63;;;-2.42;69.98
41467;BME280;27205;53.690;19.948;2023-02-28T06:57:19;101522.88;;;-2.26;70.06
41467;BME280;27205;53.690;19.948;2023-02-28T07:02:23;101528.04;;;-2.09;70.15
41467;BME280;27205;53.690;19.948;2023-02-28T07:07:26;101523.94;;;-2.00;70.62
41467;BME280;27205;53.690;19.948;2023-02-28T07:12:30;101518.71;;;-1.84;70.81
41467;BME280;27205;53.690;19.948;2023-02-28T07:17:34;101516.41;;;-1.74;71.26
41467;BME280;27205;53.690;19.948;2023-02-28T07:22:37;101515.77;;;-1.59;71.34
41467;BME280;27205;53.690;19.948;2023-02-28T07:27:42;101524.98;;;-1.39;71.81
41467;BME280;27205;53.690;19.948;2023-02-28T07:32:45;101529.14;;;-1.15;71.55
41467;BME280;27205;53.690;19.948;2023-02-28T07:37:49;101521.71;;;-0.95;71.73
41467;BME280;27205;53.690;19.948;2023-02-28T07:42:52;101512.14;;;-0.80;72.01
41467;BME280;27205;53.690;19.948;2023-02-28T07:47:56;101514.49;;;-0.59;72.28
41467;BME280;27205;53.690;19.948;2023-02-28T07:53:00;101513.29;;;-0.41;72.10
41467;BME280;27205;53.690;19.948;2023-02-28T07:58:04;101505.94;;;-0.24;72.24
41467;BME280;27205;53.690;19.948;2023-02-28T08:03:12;101510.27;;;-0.07;72.31
41467;BME280;27205;53.690;19.948;2023-02-28T08:08:16;101504.40;;;0.02;72.53
41467;BME280;27205;53.690;19.948;2023-02-28T08:13:20;101508.22;;;0.27;72.57
41467;BME280;27205;53.690;19.948;2023-02-28T08:18:23;101513.73;;;0.47;72.43
41467;BME280;27205;53.690;19.948;2023-02-28T08:23:27;101515.56;;;0.66;72.53
41467;BME280;27205;53.690;19.948;2023-02-28T08:28:31;101515.69;;;0.85;72.00
41467;BME280;27205;53.690;19.948;2023-02-28T08:33:35;101520.23;;;0.94;72.10
41467;BME280;27205;53.690;19.948;2023-02-28T08:38:39;101528.27;;;1.05;72.26
41467;BME280;27205;53.690;19.948;2023-02-28T08:43:43;101527.45;;;1.12;72.41
41467;BME280;27205;53.690;19.948;2023-02-28T08:48:46;101531.77;;;1.17;72.70
41467;BME280;27205;53.690;19.948;2023-02-28T08:53:50;101537.95;;;1.21;72.64
41467;BME280;27205;53.690;19.948;2023-02-28T08:58:55;101541.17;;;1.25;72.48
41467;BME280;27205;53.690;19.948;2023-02-28T09:03:59;101549.81;;;1.33;72.44
41467;BME280;27205;53.690;19.948;2023-02-28T09:09:03;101546.65;;;1.47;72.66
41467;BME280;27205;53.690;19.948;2023-02-28T09:14:09;101543.33;;;1.69;72.61
41467;BME280;27205;53.690;19.948;2023-02-28T09:19:13;101536.59;;;1.84;72.52
41467;BME280;27205;53.690;19.948;2023-02-28T09:24:17;101534.80;;;1.98;72.40
41467;BME280;27205;53.690;19.948;2023-02-28T09:29:21;101534.81;;;2.00;72.05
41467;BME280;27205;53.690;19.948;2023-02-28T09:34:26;101533.84;;;2.04;71.99
41467;BME280;27205;53.690;19.948;2023-02-28T09:39:30;101530.82;;;2.13;72.06
41467;BME280;27205;53.690;19.948;2023-02-28T09:44:41;101526.03;;;2.25;72.13
41467;BME280;27205;53.690;19.948;2023-02-28T09:49:48;101523.00;;;2.34;71.63
41467;BME280;27205;53.690;19.948;2023-02-28T09:54:52;101526.05;;;2.46;71.64
41467;BME280;27205;53.690;19.948;2023-02-28T10:05:30;101509.12;;;2.69;71.37
41467;BME280;27205;53.690;19.948;2023-02-28T10:10:44;101497.77;;;2.81;71.32
41467;BME280;27205;53.690;19.948;2023-02-28T10:15:52;101499.83;;;2.88;70.88
41467;BME280;27205;53.690;19.948;2023-02-28T10:20:58;101494.55;;;2.90;70.85
41467;BME280;27205;53.690;19.948;2023-02-28T10:26:14;101490.23;;;2.98;70.44
41467;BME280;27205;53.690;19.948;2023-02-28T10:31:20;101481.10;;;3.06;70.13
41467;BME280;27205;53.690;19.948;2023-02-28T10:36:24;101473.44;;;3.16;70.07
41467;BME280;27205;53.690;19.948;2023-02-28T10:41:32;101470.92;;;3.31;70.06
41467;BME280;27205;53.690;19.948;2023-02-28T10:46:39;101474.31;;;3.43;69.85
41467;BME280;27205;53.690;19.948;2023-02-28T10:51:44;101479.03;;;3.57;69.70
41467;BME280;27205;53.690;19.948;2023-02-28T11:02:34;101493.61;;;3.73;69.26
41467;BME280;27205;53.690;19.948;2023-02-28T11:07:39;101490.75;;;3.84;69.41
41467;BME280;27205;53.690;19.948;2023-02-28T11:12:56;101487.89;;;3.91;68.65
41467;BME280;27205;53.690;19.948;2023-02-28T11:23:29;101483.38;;;4.09;68.31
41467;BME280;27205;53.690;19.948;2023-02-28T11:28:35;101474.27;;;4.25;68.62
41467;BME280;27205;53.690;19.948;2023-02-28T11:38:56;101466.67;;;4.58;68.61
41467;BME280;27205;53.690;19.948;2023-02-28T11:50:01;101453.94;;;4.69;68.04
41467;BME280;27205;53.690;19.948;2023-02-28T12:00:39;101436.13;;;4.83;68.23
41467;BME280;27205;53.690;19.948;2023-02-28T12:05:47;101433.67;;;4.91;67.99
41467;BME280;27205;53.690;19.948;2023-02-28T12:27:11;101404.35;;;5.50;67.84
41467;BME280;27205;53.690;19.948;2023-02-28T12:32:32;101398.74;;;5.59;67.94
41467;BME280;27205;53.690;19.948;2023-02-28T12:37:44;101406.20;;;5.64;67.40
41467;BME280;27205;53.690;19.948;2023-02-28T12:42:57;101402.48;;;5.59;67.04
41467;BME280;27205;53.690;19.948;2023-02-28T12:48:04;101396.12;;;5.65;67.14
41467;BME280;27205;53.690;19.948;2023-02-28T12:53:28;101398.70;;;5.65;66.50
41467;BME280;27205;53.690;19.948;2023-02-28T12:58:52;101395.24;;;5.69;66.52
41467;BME280;27205;53.690;19.948;2023-02-28T13:04:32;101388.02;;;5.74;66.24
41467;BME280;27205;53.690;19.948;2023-02-28T13:09:52;101377.59;;;5.81;66.08
41467;BME280;27205;53.690;19.948;2023-02-28T13:15:24;101383.23;;;5.79;65.47
41467;BME280;27205;53.690;19.948;2023-02-28T13:20:35;101374.98;;;5.73;65.16
41467;BME280;27205;53.690;19.948;2023-02-28T13:36:25;101360.36;;;5.74;64.16
41467;BME280;27205;53.690;19.948;2023-02-28T13:51:52;101351.02;;;5.82;63.40
41467;BME280;27205;53.690;19.948;2023-02-28T13:57:01;101344.63;;;5.92;63.80
41467;BME280;27205;53.690;19.948;2023-02-28T14:07:32;101333.13;;;5.84;62.90
41467;BME280;27205;53.690;19.948;2023-02-28T14:12:54;101319.55;;;5.90;62.58
41467;BME280;27205;53.690;19.948;2023-02-28T14:18:00;101312.02;;;5.93;62.60
41467;BME280;27205;53.690;19.948;2023-02-28T14:28:43;101318.08;;;5.81;61.61
41467;BME280;27205;53.690;19.948;2023-02-28T14:39:28;101323.02;;;5.65;59.77
41467;BME280;27205;53.690;19.948;2023-02-28T14:44:36;101311.95;;;5.63;59.17
41467;BME280;27205;53.690;19.948;2023-02-28T14:49:44;101316.48;;;5.54;58.65
41467;BME280;27205;53.690;19.948;2023-02-28T14:54:59;101324.55;;;5.50;58.66
41467;BME280;27205;53.690;19.948;2023-02-28T15:00:25;101320.70;;;5.45;58.59
41467;BME280;27205;53.690;19.948;2023-02-28T15:05:32;101313.23;;;5.42;58.15
41467;BME280;27205;53.690;19.948;2023-02-28T15:10:36;101310.69;;;5.58;57.67
41467;BME280;27205;53.690;19.948;2023-02-28T15:21:08;101308.27;;;10.90;57.25
41467;BME280;27205;53.690;19.948;2023-02-28T15:26:20;101331.56;;;13.58;55.04
41467;BME280;27205;53.690;19.948;2023-02-28T15:31:41;101332.97;;;15.53;54.60
41467;BME280;27205;53.690;19.948;2023-02-28T15:36:58;101334.57;;;16.88;54.50
41467;BME280;27205;53.690;19.948;2023-02-28T15:42:12;101337.48;;;17.80;54.38
41467;BME280;27205;53.690;19.948;2023-02-28T15:47:23;101332.85;;;18.49;54.59
41467;BME280;27205;53.690;19.948;2023-02-28T15:52:37;101336.05;;;18.83;53.99
41467;BME280;27205;53.690;19.948;2023-02-28T15:57:42;101334.33;;;19.14;52.46
41467;BME280;27205;53.690;19.948;2023-02-28T16:02:46;101328.33;;;18.53;51.36
41467;BME280;27205;53.690;19.948;2023-02-28T16:07:49;101325.41;;;17.11;50.70
41467;BME280;27205;53.690;19.948;2023-02-28T16:12:54;101315.23;;;14.31;51.42
41467;BME280;27205;53.690;19.948;2023-02-28T16:18:00;101302.57;;;11.61;51.50
41467;BME280;27205;53.690;19.948;2023-02-28T16:23:04;101291.54;;;9.53;51.52
41467;BME280;27205;53.690;19.948;2023-02-28T16:28:18;101285.49;;;8.18;51.75
41467;BME280;27205;53.690;19.948;2023-02-28T16:33:22;101275.60;;;6.94;51.71
41467;BME280;27205;53.690;19.948;2023-02-28T16:38:26;101259.93;;;5.98;51.79
41467;BME280;27205;53.690;19.948;2023-02-28T16:43:30;101248.36;;;5.13;51.69
41467;BME280;27205;53.690;19.948;2023-02-28T16:48:33;101247.26;;;4.53;51.81
41467;BME280;27205;53.690;19.948;2023-02-28T16:53:37;101244.98;;;4.03;51.85
41467;BME280;27205;53.690;19.948;2023-02-28T16:58:40;101244.52;;;3.63;52.15
41467;BME280;27205;53.690;19.948;2023-02-28T17:03:44;101243.92;;;3.30;52.33
41467;BME280;27205;53.690;19.948;2023-02-28T17:08:51;101241.66;;;2.96;52.41
41467;BME280;27205;53.690;19.948;2023-02-28T17:13:54;101249.55;;;2.71;52.77
41467;BME280;27205;53.690;19.948;2023-02-28T17:19:02;101249.98;;;2.54;52.88
41467;BME280;27205;53.690;19.948;2023-02-28T17:24:06;101247.41;;;2.35;53.32
41467;BME280;27205;53.690;19.948;2023-02-28T17:29:18;101244.66;;;2.24;53.47
41467;BME280;27205;53.690;19.948;2023-02-28T17:34:23;101235.98;;;2.09;53.63
41467;BME280;27205;53.690;19.948;2023-02-28T17:39:27;101247.11;;;2.00;53.57
41467;BME280;27205;53.690;19.948;2023-02-28T17:44:31;101256.36;;;1.90;53.68
41467;BME280;27205;53.690;19.948;2023-02-28T17:49:34;101246.80;;;1.84;54.17
41467;BME280;27205;53.690;19.948;2023-02-28T17:54:38;101247.77;;;1.79;54.40
41467;BME280;27205;53.690;19.948;2023-02-28T17:59:42;101242.13;;;1.71;54.54
41467;BME280;27205;53.690;19.948;2023-02-28T18:04:46;101251.67;;;1.57;55.04
41467;BME280;27205;53.690;19.948;2023-02-28T18:09:49;101243.23;;;1.50;55.13
41467;BME280;27205;53.690;19.948;2023-02-28T18:14:53;101241.44;;;1.37;55.55
41467;BME280;27205;53.690;19.948;2023-02-28T18:19:57;101247.67;;;1.32;55.90
41467;BME280;27205;53.690;19.948;2023-02-28T18:25:06;101242.17;;;1.32;55.86
41467;BME280;27205;53.690;19.948;2023-02-28T18:30:11;101252.10;;;1.30;56.50
41467;BME280;27205;53.690;19.948;2023-02-28T18:35:15;101256.10;;;1.27;56.48
41467;BME280;27205;53.690;19.948;2023-02-28T18:40:20;101259.48;;;1.23;56.54
41467;BME280;27205;53.690;19.948;2023-02-28T18:45:23;101271.77;;;1.20;57.08
41467;BME280;27205;53.690;19.948;2023-02-28T18:50:28;101269.56;;;1.23;56.93
41467;BME280;27205;53.690;19.948;2023-02-28T18:55:31;101267.46;;;1.22;56.96
41467;BME280;27205;53.690;19.948;2023-02-28T19:00:36;101259.95;;;1.15;57.00
41467;BME280;27205;53.690;19.948;2023-02-28T19:05:40;101240.89;;;1.06;57.22
41467;BME280;27205;53.690;19.948;2023-02-28T19:10:44;101236.89;;;1.01;57.37
41467;BME280;27205;53.690;19.948;2023-02-28T19:15:47;101249.34;;;0.98;57.57
41467;BME280;27205;53.690;19.948;2023-02-28T19:20:51;101249.87;;;0.98;57.81
41467;BME280;27205;53.690;19.948;2023-02-28T19:25:54;101248.09;;;0.98;58.26
41467;BME280;27205;53.690;19.948;2023-02-28T19:31:03;101250.70;;;0.95;58.19
41467;BME280;27205;53.690;19.948;2023-02-28T19:36:11;101255.30;;;0.90;58.43
41467;BME280;27205;53.690;19.948;2023-02-28T19:41:15;101263.67;;;0.83;58.78
41467;BME280;27205;53.690;19.948;2023-02-28T19:46:19;101260.62;;;0.79;58.91
41467;BME280;27205;53.690;19.948;2023-02-28T19:51:23;101257.44;;;0.71;58.98
41467;BME280;27205;53.690;19.948;2023-02-28T19:56:26;101255.02;;;0.62;59.22
41467;BME280;27205;53.690;19.948;2023-02-28T20:01:30;101251.14;;;0.54;59.57
41467;BME280;27205;53.690;19.948;2023-02-28T20:06:34;101254.71;;;0.48;59.46
41467;BME280;27205;53.690;19.948;2023-02-28T20:11:39;101256.34;;;0.48;59.89
41467;BME280;27205;53.690;19.948;2023-02-28T20:16:44;101257.79;;;0.47;60.22
41467;BME280;27205;53.690;19.948;2023-02-28T20:21:48;101258.70;;;0.46;60.38
41467;BME280;27205;53.690;19.948;2023-02-28T20:26:52;101251.67;;;0.47;60.56
41467;BME280;27205;53.690;19.948;2023-02-28T20:31:56;101252.77;;;0.46;60.49
41467;BME280;27205;53.690;19.948;2023-02-28T20:37:00;101250.21;;;0.47;61.10
41467;BME280;27205;53.690;19.948;2023-02-28T20:42:03;101245.03;;;0.55;61.62
41467;BME280;27205;53.690;19.948;2023-02-28T20:47:07;101255.33;;;0.62;61.54
41467;BME280;27205;53.690;19.948;2023-02-28T20:52:10;101254.92;;;0.68;61.85
41467;BME280;27205;53.690;19.948;2023-02-28T20:57:14;101245.03;;;0.70;61.84
41467;BME280;27205;53.690;19.948;2023-02-28T21:02:18;101237.52;;;0.71;62.42
41467;BME280;27205;53.690;19.948;2023-02-28T21:07:27;101231.80;;;0.72;62.67
41467;BME280;27205;53.690;19.948;2023-02-28T21:12:33;101231.29;;;0.74;62.98
41467;BME280;27205;53.690;19.948;2023-02-28T21:17:43;101223.34;;;0.76;63.16
41467;BME280;27205;53.690;19.948;2023-02-28T21:22:50;101213.49;;;0.77;63.54
41467;BME280;27205;53.690;19.948;2023-02-28T21:27:55;101210.61;;;0.76;63.79
41467;BME280;27205;53.690;19.948;2023-02-28T21:33:01;101213.02;;;0.75;64.17
41467;BME280;27205;53.690;19.948;2023-02-28T21:38:05;101211.09;;;0.69;64.07
41467;BME280;27205;53.690;19.948;2023-02-28T21:43:08;101210.45;;;0.58;64.39
41467;BME280;27205;53.690;19.948;2023-02-28T21:48:12;101216.02;;;0.57;64.45
41467;BME280;27205;53.690;19.948;2023-02-28T21:53:16;101225.36;;;0.63;64.61
41467;BME280;27205;53.690;19.948;2023-02-28T21:58:19;101230.52;;;0.76;64.72
41467;BME280;27205;53.690;19.948;2023-02-28T22:03:23;101222.83;;;0.90;64.74
41467;BME280;27205;53.690;19.948;2023-02-28T22:08:27;101207.98;;;1.02;64.90
41467;BME280;27205;53.690;19.948;2023-02-28T22:13:31;101202.77;;;1.10;65.14
41467;BME280;27205;53.690;19.948;2023-02-28T22:18:35;101190.64;;;1.05;65.54
41467;BME280;27205;53.690;19.948;2023-02-28T22:23:40;101181.29;;;0.97;65.53
41467;BME280;27205;53.690;19.948;2023-02-28T22:28:44;101175.55;;;0.88;65.44
41467;BME280;27205;53.690;19.948;2023-02-28T22:33:48;101177.73;;;0.79;65.28
41467;BME280;27205;53.690;19.948;2023-02-28T22:38:53;101178.16;;;0.76;65.46
41467;BME280;27205;53.690;19.948;2023-02-28T22:43:59;101185.05;;;0.76;65.58
41467;BME280;27205;53.690;19.948;2023-02-28T22:49:04;101187.08;;;0.77;65.56
41467;BME280;27205;53.690;19.948;2023-02-28T22:54:08;101186.46;;;0.76;65.63
41467;BME280;27205;53.690;19.948;2023-02-28T22:59:12;101183.76;;;0.78;65.74
41467;BME280;27205;53.690;19.948;2023-02-28T23:04:16;101187.17;;;0.78;65.52
41467;BME280;27205;53.690;19.948;2023-02-28T23:09:21;101181.69;;;0.81;65.48
41467;BME280;27205;53.690;19.948;2023-02-28T23:14:25;101172.29;;;0.87;65.44
41467;BME280;27205;53.690;19.948;2023-02-28T23:19:31;101178.95;;;0.87;65.52
41467;BME280;27205;53.690;19.948;2023-02-28T23:24:35;101171.04;;;0.87;65.75
41467;BME280;27205;53.690;19.948;2023-02-28T23:29:39;101173.15;;;0.88;65.47
41467;BME280;27205;53.690;19.948;2023-02-28T23:34:43;101167.29;;;0.91;65.43
41467;BME280;27205;53.690;19.948;2023-02-28T23:39:46;101175.71;;;0.88;65.61
41467;BME280;27205;53.690;19.948;2023-02-28T23:44:50;101186.09;;;0.88;65.71
41467;BME280;27205;53.690;19.948;2023-02-28T23:49:54;101187.46;;;0.85;65.87
41467;BME280;27205;53.690;19.948;2023-02-28T23:54:57;101194.80;;;0.83;65.91
